EST,Max TemperatureF,Mean TemperatureF,Min TemperatureF,Max Dew PointF,MeanDew PointF,Min DewpointF,Max Humidity, Mean Humidity, Min Humidity, Max Sea Level PressureIn, Mean Sea Level PressureIn, Min Sea Level PressureIn, Max VisibilityMiles, Mean VisibilityMiles, Min VisibilityMiles, Max Wind SpeedMPH, Mean Wind SpeedMPH, Max Gust SpeedMPH,PrecipitationIn, CloudCover, Events, WindDirDegrees
2012-11-1,46,45,43,43,41,37,92,84,76,29.58,29.49,29.44,10,9,2,21,11,24,0.22,8,Rain,230
2012-11-2,43,41,38,39,37,36,92,86,79,29.80,29.68,29.58,10,10,7,18,12,23,0.16,8,Rain,264
2012-11-3,44,41,37,36,34,30,92,77,62,30.02,29.91,29.81,10,10,10,20,11,25,T,8,Rain,283
2012-11-4,44,40,36,34,32,28,89,75,60,30.08,30.04,30.01,10,10,9,16,9,21,T,8,Rain-Snow,289
2012-11-5,41,37,33,29,24,16,75,58,40,30.19,30.12,30.05,10,10,9,16,5,20,T,8,Snow,333
2012-11-6,43,35,26,25,22,19,78,62,45,30.22,30.16,30.10,10,10,10,10,4,14,0.00,6,,81
2012-11-7,42,33,24,22,20,17,81,60,39,30.14,30.08,30.02,10,10,10,10,6,13,0.00,6,,33
2012-11-8,43,36,28,26,24,21,78,64,49,30.07,30.04,30.00,10,10,10,22,9,25,0.00,5,,302
2012-11-9,47,38,28,38,32,23,85,75,65,30.19,30.13,30.06,10,9,6,14,8,16,0.00,7,Rain,251
2012-11-10,53,48,43,43,41,39,89,76,63,30.31,30.27,30.19,10,6,2,12,5,14,0.01,8,Rain,83
2012-11-11,73,61,49,45,41,36,66,50,34,30.32,30.27,30.24,10,10,6,15,6,18,0.03,6,Rain-Thunderstorm,135
2012-11-12,68,56,44,51,46,39,86,63,39,30.23,30.12,29.96,10,8,2,35,16,43,0.47,7,Rain,220
2012-11-13,44,41,37,41,32,25,96,75,53,30.52,30.34,30.20,10,9,5,24,10,31,0.18,8,Rain,265
2012-11-14,46,37,28,29,26,24,78,62,45,30.61,30.54,30.48,10,10,10,10,3,15,0.00,5,,16
2012-11-15,46,36,25,28,25,23,85,65,45,30.48,30.41,30.34,10,10,10,8,2,12,0.00,4,,86
2012-11-16,49,37,24,31,27,22,92,69,46,30.51,30.42,30.34,10,10,8,12,3,14,T,2,,323
2012-11-17,50,38,26,35,30,24,92,74,56,30.66,30.62,30.51,10,9,6,7,2,8,0.00,4,,121
2012-11-18,49,37,24,34,28,22,92,74,56,30.69,30.62,30.54,10,8,4,8,4,10,0.00,2,,85
2012-11-19,52,40,27,32,28,23,92,69,46,30.53,30.41,30.25,10,10,10,9,5,12,0.00,3,,82
2012-11-20,48,39,29,32,29,25,92,73,53,30.23,30.18,30.13,10,10,10,5,1,7,0.00,7,,71
2012-11-21,55,42,28,36,31,28,92,67,41,30.25,30.21,30.16,10,10,7,10,1,12,0.00,3,,41
2012-11-22,61,44,27,35,29,25,92,64,36,30.23,30.15,30.00,10,10,8,9,4,12,0.00,2,,94
2012-11-23,56,44,31,43,32,25,85,62,38,29.99,29.77,29.64,10,10,9,30,11,39,0.02,7,Rain,199
2012-11-24,38,35,32,30,26,22,85,70,54,29.85,29.75,29.69,10,6,1,31,18,44,0.06,8,Snow,266
2012-11-25,36,33,30,29,26,24,85,77,69,29.88,29.85,29.80,10,6,1,22,10,28,0.10,8,Snow,274
2012-11-26,37,35,33,34,30,24,96,80,64,30.21,30.06,29.85,10,5,0,23,10,26,0.15,8,Fog-Snow,259
2012-11-27,40,35,30,26,24,20,75,65,54,30.29,30.25,30.21,10,10,10,15,5,18,0.00,7,,259
2012-11-28,37,34,30,29,25,19,75,66,56,30.24,30.19,30.14,10,8,2,18,10,25,T,8,Snow,232
2012-11-29,47,40,32,30,26,21,92,69,45,30.28,30.22,30.17,10,9,2,24,13,31,T,7,Snow,265
2012-11-30,35,30,25,27,20,17,81,72,63,30.44,30.40,30.30,10,9,3,14,7,17,0.01,8,Rain-Snow,49